sensor_id;sensor_type;location;lat;lon;timestamp;pressure;altitude;pressure_sealevel;temperature;humidity
64792;BME280;51226;47.504;19.074;2023-03-22T00:00:27;100204.19;;;11.94;55.34
64792;BME280;51226;47.504;19.074;2023-03-22T00:03:51;100211.09;;;11.92;55.39
64792;BME280;51226;47.504;19.074;2023-03-22T00:06:54;100205.88;;;11.92;55.90
64792;BME280;51226;47.504;19.074;2023-03-22T00:09:57;100204.13;;;11.91;55.90
64792;BME280;51226;47.504;19.074;2023-03-22T00:13:00;100203.25;;;11.92;56.20
64792;BME280;51226;47.504;19.074;2023-03-22T00:16:03;100204.91;;;11.90;56.53
64792;BME280;51226;47.504;19.074;2023-03-22T00:19:07;100197.09;;;11.90;56.60
64792;BME280;51226;47.504;19.074;2023-03-22T00:22:09;100201.44;;;11.90;56.85
64792;BME280;51226;47.504;19.074;2023-03-22T00:25:13;100196.06;;;11.85;56.70
64792;BME280;51226;47.504;19.074;2023-03-22T00:28:16;100195.19;;;11.84;56.85
64792;BME280;51226;47.504;19.074;2023-03-22T00:31:19;100200.38;;;11.83;56.73
64792;BME280;51226;47.504;19.074;2023-03-22T00:34:22;100201.12;;;11.80;57.02
64792;BME280;51226;47.504;19.074;2023-03-22T00:37:25;100201.12;;;11.80;57.72
64792;BME280;51226;47.504;19.074;2023-03-22T00:40:29;100202.84;;;11.78;57.94
64792;BME280;51226;47.504;19.074;2023-03-22T00:43:32;100192.28;;;11.75;58.11
64792;BME280;51226;47.504;19.074;2023-03-22T00:46:35;100202.59;;;11.71;58.18
64792;BME280;51226;47.504;19.074;2023-03-22T00:49:39;100192.00;;;11.66;58.47
64792;BME280;51226;47.504;19.074;2023-03-22T00:52:42;100205.81;;;11.62;58.99
64792;BME280;51226;47.504;19.074;2023-03-22T00:55:45;100191.00;;;11.62;59.12
64792;BME280;51226;47.504;19.074;2023-03-22T00:58:48;100192.69;;;11.60;58.91
64792;BME280;51226;47.504;19.074;2023-03-22T01:01:51;100194.38;;;11.58;59.00
64792;BME280;51226;47.504;19.074;2023-03-22T01:04:54;100195.16;;;11.56;58.62
64792;BME280;51226;47.504;19.074;2023-03-22T01:07:58;100195.06;;;11.53;58.72
64792;BME280;51226;47.504;19.074;2023-03-22T01:11:05;100195.72;;;11.45;59.19
64792;BME280;51226;47.504;19.074;2023-03-22T01:14:08;100190.34;;;11.41;59.09
64792;BME280;51226;47.504;19.074;2023-03-22T01:17:11;100186.81;;;11.39;59.02
64792;BME280;51226;47.504;19.074;2023-03-22T01:20:14;100181.53;;;11.37;59.12
64792;BME280;51226;47.504;19.074;2023-03-22T01:23:18;100184.00;;;11.32;59.23
64792;BME280;51226;47.504;19.074;2023-03-22T01:26:20;100174.34;;;11.30;59.86
64792;BME280;51226;47.504;19.074;2023-03-22T01:29:24;100170.88;;;11.29;60.25
64792;BME280;51226;47.504;19.074;2023-03-22T01:32:27;100170.94;;;11.32;60.69
64792;BME280;51226;47.504;19.074;2023-03-22T01:35:29;100161.34;;;11.31;60.76
64792;BME280;51226;47.504;19.074;2023-03-22T01:38:35;100166.47;;;11.28;61.24
64792;BME280;51226;47.504;19.074;2023-03-22T01:41:38;100163.97;;;11.31;61.18
64792;BME280;51226;47.504;19.074;2023-03-22T01:44:43;100163.00;;;11.28;61.63
64792;BME280;51226;47.504;19.074;2023-03-22T01:47:53;100166.37;;;11.25;61.52
64792;BME280;51226;47.504;19.074;2023-03-22T01:51:02;100168.88;;;11.22;61.80
64792;BME280;51226;47.504;19.074;2023-03-22T01:54:11;100180.09;;;11.18;61.96
64792;BME280;51226;47.504;19.074;2023-03-22T01:57:15;100177.38;;;11.15;62.35
64792;BME280;51226;47.504;19.074;2023-03-22T02:00:19;100167.69;;;11.12;62.62
64792;BME280;51226;47.504;19.074;2023-03-22T02:03:35;100180.81;;;11.14;62.68
64792;BME280;51226;47.504;19.074;2023-03-22T02:06:41;100175.53;;;11.12;62.44
64792;BME280;51226;47.504;19.074;2023-03-22T02:09:45;100174.59;;;11.10;62.67
64792;BME280;51226;47.504;19.074;2023-03-22T02:30:38;100184.66;;;10.98;63.08
64792;BME280;51226;47.504;19.074;2023-03-22T02:37:11;100187.94;;;10.92;63.28
64792;BME280;51226;47.504;19.074;2023-03-22T02:47:12;100194.78;;;10.89;63.94
64792;BME280;51226;47.504;19.074;2023-03-22T02:50:23;100199.16;;;10.90;64.00
64792;BME280;51226;47.504;19.074;2023-03-22T02:53:34;100199.22;;;10.91;63.43
64792;BME280;51226;47.504;19.074;2023-03-22T02:56:45;100196.44;;;10.87;63.36
64792;BME280;51226;47.504;19.074;2023-03-22T02:59:50;100199.81;;;10.83;63.46
64792;BME280;51226;47.504;19.074;2023-03-22T03:02:58;100199.69;;;10.80;63.29
64792;BME280;51226;47.504;19.074;2023-03-22T03:06:07;100204.22;;;10.85;62.80
64792;BME280;51226;47.504;19.074;2023-03-22T03:09:13;100202.66;;;10.90;62.84
64792;BME280;51226;47.504;19.074;2023-03-22T03:12:22;100200.25;;;10.97;61.99
64792;BME280;51226;47.504;19.074;2023-03-22T03:15:26;100198.28;;;10.89;62.41
64792;BME280;51226;47.504;19.074;2023-03-22T03:22:00;100200.91;;;10.89;62.03
64792;BME280;51226;47.504;19.074;2023-03-22T03:25:17;100198.28;;;10.89;62.43
64792;BME280;51226;47.504;19.074;2023-03-22T03:28:46;100195.69;;;10.89;62.34
64792;BME280;51226;47.504;19.074;2023-03-22T03:32:05;100198.34;;;10.91;61.90
64792;BME280;51226;47.504;19.074;2023-03-22T03:38:27;100198.22;;;10.88;62.11
64792;BME280;51226;47.504;19.074;2023-03-22T03:41:33;100203.63;;;10.94;61.63
64792;BME280;51226;47.504;19.074;2023-03-22T03:44:37;100200.91;;;10.89;61.94
64792;BME280;51226;47.504;19.074;2023-03-22T03:47:42;100204.22;;;10.85;62.22
64792;BME280;51226;47.504;19.074;2023-03-22T03:50:47;100211.22;;;10.86;61.36
64792;BME280;51226;47.504;19.074;2023-03-22T03:53:53;100212.25;;;10.91;60.78
64792;BME280;51226;47.504;19.074;2023-03-22T03:56:55;100211.88;;;10.81;61.51
64792;BME280;51226;47.504;19.074;2023-03-22T03:59:59;100216.09;;;10.77;61.54
64792;BME280;51226;47.504;19.074;2023-03-22T04:03:04;100205.63;;;10.75;61.20
64792;BME280;51226;47.504;19.074;2023-03-22T04:06:08;100202.78;;;10.68;61.68
64792;BME280;51226;47.504;19.074;2023-03-22T04:09:11;100202.13;;;10.75;61.20
64792;BME280;51226;47.504;19.074;2023-03-22T04:12:15;100211.31;;;10.64;62.00
64792;BME280;51226;47.504;19.074;2023-03-22T04:15:19;100204.28;;;10.61;62.25
64792;BME280;51226;47.504;19.074;2023-03-22T04:18:23;100201.50;;;10.56;62.38
64792;BME280;51226;47.504;19.074;2023-03-22T04:21:26;100196.34;;;10.58;62.84
64792;BME280;51226;47.504;19.074;2023-03-22T04:24:29;100201.38;;;10.53;62.61
64792;BME280;51226;47.504;19.074;2023-03-22T04:27:32;100203.88;;;10.50;62.34
64792;BME280;51226;47.504;19.074;2023-03-22T04:30:36;100212.44;;;10.46;62.87
64792;BME280;51226;47.504;19.074;2023-03-22T04:33:40;100214.06;;;10.43;63.19
64792;BME280;51226;47.504;19.074;2023-03-22T04:36:49;100223.63;;;10.44;63.35
64792;BME280;51226;47.504;19.074;2023-03-22T04:39:52;100219.22;;;10.41;63.39
64792;BME280;51226;47.504;19.074;2023-03-22T04:42:57;100223.37;;;10.36;63.53
64792;BME280;51226;47.504;19.074;2023-03-22T04:46:00;100228.47;;;10.33;63.86
64792;BME280;51226;47.504;19.074;2023-03-22T04:49:06;100218.78;;;10.30;63.93
64792;BME280;51226;47.504;19.074;2023-03-22T04:52:09;100212.69;;;10.30;64.06
64792;BME280;51226;47.504;19.074;2023-03-22T04:55:13;100223.19;;;10.31;63.73
64792;BME280;51226;47.504;19.074;2023-03-22T04:58:17;100218.12;;;10.34;63.77
64792;BME280;51226;47.504;19.074;2023-03-22T05:01:24;100224.25;;;10.36;63.46
64792;BME280;51226;47.504;19.074;2023-03-22T05:04:29;100228.59;;;10.36;63.50
64792;BME280;51226;47.504;19.074;2023-03-22T05:07:34;100229.66;;;10.41;63.37
64792;BME280;51226;47.504;19.074;2023-03-22T05:10:40;100232.38;;;10.44;63.03
64792;BME280;51226;47.504;19.074;2023-03-22T05:13:44;100237.78;;;10.50;62.54
64792;BME280;51226;47.504;19.074;2023-03-22T05:16:49;100246.34;;;10.46;62.89
64792;BME280;51226;47.504;19.074;2023-03-22T05:19:52;100248.09;;;10.47;62.98
64792;BME280;51226;47.504;19.074;2023-03-22T05:22:55;100248.09;;;10.47;63.17
64792;BME280;51226;47.504;19.074;2023-03-22T05:25:59;100252.59;;;10.51;63.08
64792;BME280;51226;47.504;19.074;2023-03-22T05:29:03;100252.00;;;10.59;62.78
64792;BME280;51226;47.504;19.074;2023-03-22T05:32:10;100237.37;;;10.64;62.33
64792;BME280;51226;47.504;19.074;2023-03-22T05:35:13;100247.09;;;10.68;62.13
64792;BME280;51226;47.504;19.074;2023-03-22T05:38:17;100250.03;;;10.77;61.63
64792;BME280;51226;47.504;19.074;2023-03-22T05:41:21;100249.91;;;10.74;62.09
64792;BME280;51226;47.504;19.074;2023-03-22T05:44:27;100250.03;;;10.77;61.96
64792;BME280;51226;47.504;19.074;2023-03-22T05:47:31;100264.28;;;10.87;61.93
64792;BME280;51226;47.504;19.074;2023-03-22T05:50:34;100259.34;;;10.94;60.98
64792;BME280;51226;47.504;19.074;2023-03-22T05:53:37;100258.69;;;11.02;61.05
64792;BME280;51226;47.504;19.074;2023-03-22T05:56:40;100254.56;;;11.08;60.93
64792;BME280;51226;47.504;19.074;2023-03-22T05:59:42;100273.19;;;11.19;60.18
64792;BME280;51226;47.504;19.074;2023-03-22T06:02:47;100275.19;;;11.26;60.42
64792;BME280;51226;47.504;19.074;2023-03-22T06:05:51;100268.50;;;11.35;60.04
64792;BME280;51226;47.504;19.074;2023-03-22T06:08:57;100273.91;;;11.41;59.82
64792;BME280;51226;47.504;19.074;2023-03-22T06:12:18;100277.66;;;11.49;59.75
64792;BME280;51226;47.504;19.074;2023-03-22T06:15:24;100284.78;;;11.53;59.03
64792;BME280;51226;47.504;19.074;2023-03-22T06:18:29;100281.56;;;11.62;58.68
64792;BME280;51226;47.504;19.074;2023-03-22T06:21:32;100277.56;;;11.73;58.98
64792;BME280;51226;47.504;19.074;2023-03-22T06:24:35;100267.72;;;11.92;58.63
64792;BME280;51226;47.504;19.074;2023-03-22T06:27:39;100271.97;;;12.17;58.49
64792;BME280;51226;47.504;19.074;2023-03-22T06:30:42;100283.78;;;12.34;57.99
64792;BME280;51226;47.504;19.074;2023-03-22T06:33:46;100282.66;;;12.55;57.42
64792;BME280;51226;47.504;19.074;2023-03-22T06:36:50;100289.34;;;12.77;56.90
64792;BME280;51226;47.504;19.074;2023-03-22T06:39:53;100296.78;;;12.93;55.35
64792;BME280;51226;47.504;19.074;2023-03-22T06:42:56;100287.84;;;13.19;54.86
64792;BME280;51226;47.504;19.074;2023-03-22T06:45:59;100290.19;;;13.41;53.39
64792;BME280;51226;47.504;19.074;2023-03-22T06:49:05;100282.69;;;13.55;53.73
64792;BME280;51226;47.504;19.074;2023-03-22T06:52:09;100283.94;;;13.73;53.63
64792;BME280;51226;47.504;19.074;2023-03-22T06:55:12;100294.16;;;13.98;52.69
64792;BME280;51226;47.504;19.074;2023-03-22T06:58:15;100291.97;;;14.17;52.69
64792;BME280;51226;47.504;19.074;2023-03-22T07:01:18;100292.25;;;14.31;51.82
64792;BME280;51226;47.504;19.074;2023-03-22T07:04:21;100304.78;;;14.44;50.85
64792;BME280;51226;47.504;19.074;2023-03-22T07:07:26;100301.37;;;14.50;50.73
64792;BME280;51226;47.504;19.074;2023-03-22T07:10:29;100303.31;;;14.58;50.77
64792;BME280;51226;47.504;19.074;2023-03-22T07:13:32;100301.53;;;14.57;50.29
64792;BME280;51226;47.504;19.074;2023-03-22T07:16:36;100300.53;;;14.51;50.27
64792;BME280;51226;47.504;19.074;2023-03-22T07:19:39;100305.66;;;14.44;50.58
64792;BME280;51226;47.504;19.074;2023-03-22T07:22:45;100312.75;;;14.49;49.85
64792;BME280;51226;47.504;19.074;2023-03-22T07:25:48;100313.69;;;14.52;50.01
64792;BME280;51226;47.504;19.074;2023-03-22T07:28:52;100314.75;;;14.60;49.98
64792;BME280;51226;47.504;19.074;2023-03-22T07:31:56;100314.94;;;14.70;50.00
64792;BME280;51226;47.504;19.074;2023-03-22T07:34:59;100307.41;;;14.88;49.46
64792;BME280;51226;47.504;19.074;2023-03-22T07:38:04;100296.53;;;15.14;49.07
64792;BME280;51226;47.504;19.074;2023-03-22T07:41:08;100294.34;;;15.38;47.65
64792;BME280;51226;47.504;19.074;2023-03-22T07:44:12;100294.47;;;15.48;47.17
64792;BME280;51226;47.504;19.074;2023-03-22T07:47:20;100303.38;;;15.56;47.90
64792;BME280;51226;47.504;19.074;2023-03-22T07:50:41;100306.16;;;15.65;47.58
64792;BME280;51226;47.504;19.074;2023-03-22T07:53:44;100301.50;;;16.04;46.88
64792;BME280;51226;47.504;19.074;2023-03-22T07:56:47;100291.22;;;16.21;45.43
64792;BME280;51226;47.504;19.074;2023-03-22T07:59:50;100300.09;;;16.29;45.42
64792;BME280;51226;47.504;19.074;2023-03-22T08:02:53;100303.06;;;16.57;43.64
64792;BME280;51226;47.504;19.074;2023-03-22T08:06:00;100296.34;;;16.83;42.82
64792;BME280;51226;47.504;19.074;2023-03-22T08:09:03;100289.13;;;16.64;43.90
64792;BME280;51226;47.504;19.074;2023-03-22T08:12:09;100286.44;;;16.59;45.26
64792;BME280;51226;47.504;19.074;2023-03-22T08:15:12;100282.91;;;16.59;44.39
64792;BME280;51226;47.504;19.074;2023-03-22T08:18:16;100282.13;;;16.66;44.75
64792;BME280;51226;47.504;19.074;2023-03-22T08:21:19;100287.69;;;16.91;43.06
64792;BME280;51226;47.504;19.074;2023-03-22T08:24:25;100293.03;;;17.00;43.83
64792;BME280;51226;47.504;19.074;2023-03-22T08:27:29;100287.06;;;17.16;42.63
64792;BME280;51226;47.504;19.074;2023-03-22T08:30:34;100287.13;;;17.22;41.70
64792;BME280;51226;47.504;19.074;2023-03-22T08:33:37;100297.97;;;16.72;43.09
64792;BME280;51226;47.504;19.074;2023-03-22T08:36:41;100297.72;;;16.47;45.52
64792;BME280;51226;47.504;19.074;2023-03-22T08:39:43;100307.44;;;16.55;44.33
64792;BME280;51226;47.504;19.074;2023-03-22T08:42:49;100313.72;;;16.66;44.51
64792;BME280;51226;47.504;19.074;2023-03-22T08:45:52;100318.91;;;16.60;42.83
64792;BME280;51226;47.504;19.074;2023-03-22T08:48:55;100309.69;;;16.24;43.34
64792;BME280;51226;47.504;19.074;2023-03-22T08:52:02;100309.41;;;16.05;45.17
64792;BME280;51226;47.504;19.074;2023-03-22T08:55:08;100299.72;;;16.01;46.00
64792;BME280;51226;47.504;19.074;2023-03-22T08:58:14;100298.91;;;16.07;46.30
64792;BME280;51226;47.504;19.074;2023-03-22T09:01:23;100302.66;;;16.24;44.43
64792;BME280;51226;47.504;19.074;2023-03-22T09:04:28;100304.19;;;16.08;44.82
64792;BME280;51226;47.504;19.074;2023-03-22T09:07:34;100302.34;;;16.01;44.75
64792;BME280;51226;47.504;19.074;2023-03-22T09:10:38;100303.84;;;15.84;46.46
64792;BME280;51226;47.504;19.074;2023-03-22T09:13:42;100307.75;;;16.14;44.94
64792;BME280;51226;47.504;19.074;2023-03-22T09:16:44;100311.75;;;16.49;44.10
64792;BME280;51226;47.504;19.074;2023-03-22T09:19:49;100306.56;;;16.54;44.19
64792;BME280;51226;47.504;19.074;2023-03-22T09:23:05;100310.47;;;16.89;43.27
64792;BME280;51226;47.504;19.074;2023-03-22T09:26:09;100303.56;;;16.97;43.95
64792;BME280;51226;47.504;19.074;2023-03-22T09:29:12;100299.19;;;16.97;44.02
64792;BME280;51226;47.504;19.074;2023-03-22T09:32:16;100296.56;;;17.02;42.69
64792;BME280;51226;47.504;19.074;2023-03-22T09:35:21;100291.25;;;16.96;42.73
64792;BME280;51226;47.504;19.074;2023-03-22T09:38:25;100287.66;;;16.88;44.64
64792;BME280;51226;47.504;19.074;2023-03-22T09:41:37;100292.22;;;17.06;42.76
64792;BME280;51226;47.504;19.074;2023-03-22T09:44:43;100294.87;;;17.07;44.00
64792;BME280;51226;47.504;19.074;2023-03-22T09:47:51;100284.31;;;17.07;42.69
64792;BME280;51226;47.504;19.074;2023-03-22T09:50:56;100281.66;;;17.01;42.53
64792;BME280;51226;47.504;19.074;2023-03-22T09:54:02;100276.25;;;16.89;44.55
64792;BME280;51226;47.504;19.074;2023-03-22T10:00:38;100282.59;;;17.06;43.46
64792;BME280;51226;47.504;19.074;2023-03-22T10:10:32;100276.91;;;16.69;44.52
64792;BME280;51226;47.504;19.074;2023-03-22T10:13:48;100278.59;;;16.64;44.18
64792;BME280;51226;47.504;19.074;2023-03-22T10:16:58;100278.47;;;16.55;44.89
64792;BME280;51226;47.504;19.074;2023-03-22T10:20:20;100283.63;;;16.45;44.10
64792;BME280;51226;47.504;19.074;2023-03-22T10:23:37;100281.69;;;16.29;45.72
64792;BME280;51226;47.504;19.074;2023-03-22T10:26:45;100278.88;;;16.18;46.13
64792;BME280;51226;47.504;19.074;2023-03-22T10:30:03;100272.78;;;16.21;45.28
64792;BME280;51226;47.504;19.074;2023-03-22T10:33:15;100270.13;;;16.18;45.96
64792;BME280;51226;47.504;19.074;2023-03-22T10:36:26;100267.59;;;16.24;44.79
64792;BME280;51226;47.504;19.074;2023-03-22T10:39:37;100277.16;;;16.20;44.57
64792;BME280;51226;47.504;19.074;2023-03-22T10:42:44;100279.38;;;15.89;45.20
64792;BME280;51226;47.504;19.074;2023-03-22T10:45:54;100272.09;;;15.74;45.62
64792;BME280;51226;47.504;19.074;2023-03-22T10:48:59;100275.28;;;15.52;45.76
64792;BME280;51226;47.504;19.074;2023-03-22T10:52:50;100279.25;;;15.28;46.08
64792;BME280;51226;47.504;19.074;2023-03-22T10:55:38;100273.06;;;15.25;46.63
64792;BME280;51226;47.504;19.074;2023-03-22T10:58:41;100265.88;;;15.14;47.71
64792;BME280;51226;47.504;19.074;2023-03-22T11:01:44;100266.53;;;15.01;48.08
64792;BME280;51226;47.504;19.074;2023-03-22T11:04:52;100261.22;;;14.99;47.73
64792;BME280;51226;47.504;19.074;2023-03-22T11:07:57;100268.88;;;14.86;48.15
64792;BME280;51226;47.504;19.074;2023-03-22T11:11:01;100264.19;;;14.69;48.86
64792;BME280;51226;47.504;19.074;2023-03-22T11:14:13;100266.84;;;14.71;48.87
64792;BME280;51226;47.504;19.074;2023-03-22T11:17:22;100258.13;;;14.72;49.01
64792;BME280;51226;47.504;19.074;2023-03-22T11:20:27;100251.56;;;14.53;49.86
64792;BME280;51226;47.504;19.074;2023-03-22T11:23:42;100250.34;;;14.34;50.37
64792;BME280;51226;47.504;19.074;2023-03-22T11:30:16;100236.22;;;14.27;50.61
64792;BME280;51226;47.504;19.074;2023-03-22T11:33:22;100239.94;;;14.40;50.07
64792;BME280;51226;47.504;19.074;2023-03-22T11:36:28;100238.94;;;14.33;50.89
64792;BME280;51226;47.504;19.074;2023-03-22T11:39:31;100228.56;;;14.39;50.12
64792;BME280;51226;47.504;19.074;2023-03-22T11:42:33;100231.53;;;14.56;49.68
64792;BME280;51226;47.504;19.074;2023-03-22T11:45:40;100225.41;;;14.56;49.62
64792;BME280;51226;47.504;19.074;2023-03-22T11:48:49;100219.94;;;14.43;50.12
64792;BME280;51226;47.504;19.074;2023-03-22T11:51:54;100215.56;;;14.44;49.76
64792;BME280;51226;47.504;19.074;2023-03-22T11:54:59;100214.72;;;14.46;49.50
64792;BME280;51226;47.504;19.074;2023-03-22T11:58:04;100206.09;;;14.52;49.59
64792;BME280;51226;47.504;19.074;2023-03-22T12:01:15;100213.53;;;14.75;48.96
64792;BME280;51226;47.504;19.074;2023-03-22T12:04:23;100205.59;;;14.70;48.53
64792;BME280;51226;47.504;19.074;2023-03-22T12:07:29;100214.56;;;14.85;48.26
64792;BME280;51226;47.504;19.074;2023-03-22T12:10:40;100216.31;;;14.84;49.96
64792;BME280;51226;47.504;19.074;2023-03-22T12:13:54;100216.69;;;15.06;48.58
64792;BME280;51226;47.504;19.074;2023-03-22T12:17:25;100220.69;;;15.35;48.71
64792;BME280;51226;47.504;19.074;2023-03-22T12:20:41;100213.56;;;15.86;46.16
64792;BME280;51226;47.504;19.074;2023-03-22T12:23:45;100210.72;;;16.38;45.72
64792;BME280;51226;47.504;19.074;2023-03-22T12:26:48;100209.38;;;16.76;44.80
64792;BME280;51226;47.504;19.074;2023-03-22T12:30:02;100211.47;;;17.12;42.64
64792;BME280;51226;47.504;19.074;2023-03-22T12:33:29;100208.22;;;17.44;41.45
64792;BME280;51226;47.504;19.074;2023-03-22T12:36:50;100203.00;;;17.55;43.53
64792;BME280;51226;47.504;19.074;2023-03-22T12:43:21;100196.97;;;17.73;40.14
64792;BME280;51226;47.504;19.074;2023-03-22T12:46:41;100199.63;;;17.79;39.83
64792;BME280;51226;47.504;19.074;2023-03-22T12:53:11;100199.38;;;17.40;40.37
64792;BME280;51226;47.504;19.074;2023-03-22T12:56:17;100194.97;;;17.35;40.23
64792;BME280;51226;47.504;19.074;2023-03-22T12:59:25;100193.97;;;17.22;41.09
64792;BME280;51226;47.504;19.074;2023-03-22T13:02:33;100189.69;;;17.35;40.49
64792;BME280;51226;47.504;19.074;2023-03-22T13:05:36;100187.97;;;17.41;39.29
64792;BME280;51226;47.504;19.074;2023-03-22T13:15:29;100161.72;;;17.62;39.07
64792;BME280;51226;47.504;19.074;2023-03-22T13:21:47;100157.59;;;18.19;37.64
64792;BME280;51226;47.504;19.074;2023-03-22T13:28:22;100147.16;;;18.64;35.62
64792;BME280;51226;47.504;19.074;2023-03-22T13:31:43;100145.44;;;18.89;35.29
64792;BME280;51226;47.504;19.074;2023-03-22T13:34:48;100149.84;;;19.12;35.13
64792;BME280;51226;47.504;19.074;2023-03-22T13:38:00;100142.81;;;19.01;35.13
64792;BME280;51226;47.504;19.074;2023-03-22T13:44:30;100145.44;;;18.83;34.64
64792;BME280;51226;47.504;19.074;2023-03-22T13:47:45;100142.78;;;18.86;34.51
64792;BME280;51226;47.504;19.074;2023-03-22T13:50:48;100139.22;;;18.81;34.89
64792;BME280;51226;47.504;19.074;2023-03-22T13:54:15;100135.75;;;18.91;34.23
64792;BME280;51226;47.504;19.074;2023-03-22T13:57:56;100134.88;;;18.92;34.29
64792;BME280;51226;47.504;19.074;2023-03-22T14:01:13;100131.31;;;18.70;34.35
64792;BME280;51226;47.504;19.074;2023-03-22T14:04:27;100126.91;;;18.63;34.24
64792;BME280;51226;47.504;19.074;2023-03-22T14:07:55;100125.13;;;18.48;33.83
64792;BME280;51226;47.504;19.074;2023-03-22T14:11:32;100119.81;;;18.36;33.96
64792;BME280;51226;47.504;19.074;2023-03-22T14:14:42;100121.53;;;18.12;34.48
64792;BME280;51226;47.504;19.074;2023-03-22T14:17:54;100119.69;;;17.92;35.16
64792;BME280;51226;47.504;19.074;2023-03-22T14:21:12;100109.09;;;17.86;35.00
64792;BME280;51226;47.504;19.074;2023-03-22T14:24:18;100112.59;;;17.82;34.97
64792;BME280;51226;47.504;19.074;2023-03-22T14:27:21;100111.69;;;17.71;34.50
64792;BME280;51226;47.504;19.074;2023-03-22T14:30:41;100107.28;;;17.70;34.88
64792;BME280;51226;47.504;19.074;2023-03-22T14:33:43;100101.06;;;17.62;35.69
64792;BME280;51226;47.504;19.074;2023-03-22T14:36:46;100116.94;;;17.75;35.22
64792;BME280;51226;47.504;19.074;2023-03-22T14:39:50;100106.44;;;17.85;35.72
64792;BME280;51226;47.504;19.074;2023-03-22T14:42:52;100102.09;;;17.88;36.07
64792;BME280;51226;47.504;19.074;2023-03-22T14:46:06;100103.81;;;17.86;36.28
64792;BME280;51226;47.504;19.074;2023-03-22T14:49:15;100109.03;;;17.68;36.99
64792;BME280;51226;47.504;19.074;2023-03-22T14:52:30;100103.72;;;17.65;37.14
64792;BME280;51226;47.504;19.074;2023-03-22T14:55:32;100101.97;;;17.65;36.94
64792;BME280;51226;47.504;19.074;2023-03-22T14:58:38;100099.25;;;17.48;37.33
64792;BME280;51226;47.504;19.074;2023-03-22T15:01:42;100101.84;;;17.36;37.57
64792;BME280;51226;47.504;19.074;2023-03-22T15:04:49;100098.19;;;17.18;38.69
64792;BME280;51226;47.504;19.074;2023-03-22T15:07:54;100090.25;;;17.11;38.85
64792;BME280;51226;47.504;19.074;2023-03-22T15:11:01;100093.69;;;17.00;39.41
64792;BME280;51226;47.504;19.074;2023-03-22T15:14:07;100098.94;;;17.00;39.82
64792;BME280;51226;47.504;19.074;2023-03-22T15:17:11;100091.16;;;17.14;40.12
64792;BME280;51226;47.504;19.074;2023-03-22T15:20:18;100098.22;;;17.21;39.51
64792;BME280;51226;47.504;19.074;2023-03-22T15:26:34;100085.97;;;17.30;38.88
64792;BME280;51226;47.504;19.074;2023-03-22T15:29:40;100080.63;;;17.20;39.29
64792;BME280;51226;47.504;19.074;2023-03-22T15:32:42;100068.25;;;17.04;40.55
64792;BME280;51226;47.504;19.074;2023-03-22T15:35:46;100076.22;;;17.15;39.98
64792;BME280;51226;47.504;19.074;2023-03-22T15:38:49;100072.72;;;17.19;39.97
64792;BME280;51226;47.504;19.074;2023-03-22T15:41:56;100075.38;;;17.23;40.84
64792;BME280;51226;47.504;19.074;2023-03-22T15:45:12;100077.19;;;17.28;40.33
64792;BME280;51226;47.504;19.074;2023-03-22T15:48:19;100072.72;;;17.20;40.90
64792;BME280;51226;47.504;19.074;2023-03-22T15:51:27;100065.75;;;17.24;40.50
64792;BME280;51226;47.504;19.074;2023-03-22T15:54:30;100071.81;;;17.11;40.92
64792;BME280;51226;47.504;19.074;2023-03-22T15:57:43;100068.25;;;17.07;41.69
64792;BME280;51226;47.504;19.074;2023-03-22T16:00:47;100069.91;;;16.90;42.36
64792;BME280;51226;47.504;19.074;2023-03-22T16:03:54;100069.03;;;16.94;41.76
64792;BME280;51226;47.504;19.074;2023-03-22T16:06:57;100057.59;;;16.87;42.12
64792;BME280;51226;47.504;19.074;2023-03-22T16:09:59;100073.19;;;16.67;43.05
64792;BME280;51226;47.504;19.074;2023-03-22T16:13:08;100069.66;;;16.62;43.12
64792;BME280;51226;47.504;19.074;2023-03-22T16:16:14;100074.81;;;16.48;43.58
64792;BME280;51226;47.504;19.074;2023-03-22T16:19:20;100062.44;;;16.38;45.04
64792;BME280;51226;47.504;19.074;2023-03-22T16:22:21;100059.88;;;16.47;43.60
64792;BME280;51226;47.504;19.074;2023-03-22T16:25:23;100068.50;;;16.32;43.66
64792;BME280;51226;47.504;19.074;2023-03-22T16:28:28;100070.22;;;16.24;44.92
64792;BME280;51226;47.504;19.074;2023-03-22T16:31:30;100062.41;;;16.35;43.12
64792;BME280;51226;47.504;19.074;2023-03-22T16:34:32;100061.41;;;16.23;43.22
64792;BME280;51226;47.504;19.074;2023-03-22T16:37:34;100060.41;;;16.07;44.42
64792;BME280;51226;47.504;19.074;2023-03-22T16:40:44;100067.31;;;15.99;45.39
64792;BME280;51226;47.504;19.074;2023-03-22T16:43:47;100071.63;;;15.91;44.48
64792;BME280;51226;47.504;19.074;2023-03-22T16:46:49;100067.16;;;15.85;45.55
64792;BME280;51226;47.504;19.074;2023-03-22T16:49:52;100073.22;;;15.78;48.05
64792;BME280;51226;47.504;19.074;2023-03-22T16:52:54;100077.53;;;15.74;45.27
64792;BME280;51226;47.504;19.074;2023-03-22T16:55:56;100075.69;;;15.67;45.90
64792;BME280;51226;47.504;19.074;2023-03-22T16:58:58;100077.37;;;15.62;47.19
64792;BME280;51226;47.504;19.074;2023-03-22T17:01:59;100076.41;;;15.54;49.68
64792;BME280;51226;47.504;19.074;2023-03-22T17:05:02;100079.91;;;15.54;46.62
64792;BME280;51226;47.504;19.074;2023-03-22T17:08:14;100077.16;;;15.47;48.97
64792;BME280;51226;47.504;19.074;2023-03-22T17:11:25;100071.88;;;15.42;47.91
64792;BME280;51226;47.504;19.074;2023-03-22T17:14:29;100072.03;;;15.56;45.36
64792;BME280;51226;47.504;19.074;2023-03-22T17:17:30;100069.28;;;15.44;45.89